Time;durP1;ratioP1;P1;durP2;ratioP2;P2;SDS_P1;SDS_P2;PMS_P1;PMS_P2;Temp;Humidity;BMP_temperature;BMP_pressure;BME280_temperature;BME280_humidity;BME280_pressure;Samples;Min_cycle;Max_cycle;Signal;HPM_P1;HPM_P2
2022/01/20 00:02:01;;;;;;;15.80;1.88;;;4.10;99.90;;;;;;5068245;28;20412;-73
2022/01/20 00:04:39;;;;;;;16.13;2.65;;;4.00;99.90;;;;;;5050840;28;20036;-73
2022/01/20 00:23:08;;;;;;;13.85;2.10;;;4.00;99.90;;;;;;5054072;28;20098;-73
2022/01/20 00:26:23;;;;;;;10.13;1.90;;;4.40;99.90;;;;;;5054875;28;20379;-72
2022/01/20 00:28:52;;;;;;;15.95;2.90;;;4.40;99.90;;;;;;5049926;28;20047;-73
2022/01/20 00:33:50;;;;;;;10.90;1.88;;;4.50;99.90;;;;;;5054536;28;20421;-73
2022/01/20 00:38:42;;;;;;;9.38;1.95;;;4.40;99.90;;;;;;5054668;28;20037;-73
2022/01/20 00:41:14;;;;;;;13.48;1.83;;;4.40;99.90;;;;;;5054891;28;20054;-73
2022/01/20 00:43:41;;;;;;;10.20;1.77;;;4.30;99.90;;;;;;5052584;28;20040;-73
2022/01/20 00:46:06;;;;;;;7.20;1.27;;;4.20;99.90;;;;;;5053149;28;20111;-73
2022/01/20 00:48:32;;;;;;;13.50;1.92;;;4.10;99.90;;;;;;5037577;28;20067;-73
2022/01/20 00:50:57;;;;;;;12.88;2.05;;;4.10;99.90;;;;;;5033740;28;20041;-73
2022/01/20 00:53:23;;;;;;;14.55;1.70;;;4.00;99.90;;;;;;5051455;28;20040;-73
2022/01/20 00:55:48;;;;;;;14.82;2.00;;;4.00;99.90;;;;;;5070249;28;20048;-73
2022/01/20 00:58:14;;;;;;;15.98;2.97;;;3.90;99.90;;;;;;5053484;28;20044;-73
2022/01/20 01:00:40;;;;;;;11.70;1.60;;;4.00;99.90;;;;;;5054231;28;20558;-73
2022/01/20 01:03:05;;;;;;;10.77;2.03;;;3.90;99.90;;;;;;5053810;28;20047;-73
2022/01/20 01:05:34;;;;;;;14.95;1.77;;;4.00;99.90;;;;;;5053083;28;20123;-73
2022/01/20 01:07:59;;;;;;;12.10;1.70;;;4.00;99.90;;;;;;5052671;28;20040;-73
2022/01/20 01:10:29;;;;;;;20.88;2.38;;;4.00;99.90;;;;;;5053210;28;20382;-73
2022/01/20 01:13:01;;;;;;;10.98;1.63;;;4.10;99.90;;;;;;5050921;28;20060;-73
2022/01/20 01:15:34;;;;;;;11.18;1.92;;;4.10;99.90;;;;;;5054109;28;20394;-73
2022/01/20 01:23:12;;;;;;;12.88;2.00;;;4.10;99.90;;;;;;5051622;28;20045;-73
2022/01/20 01:25:38;;;;;;;13.05;2.42;;;4.20;99.90;;;;;;5071024;28;20072;-73
2022/01/20 01:28:04;;;;;;;11.68;1.60;;;4.20;99.90;;;;;;5055416;28;20080;-73
2022/01/20 01:32:58;;;;;;;16.88;2.17;;;4.10;99.90;;;;;;5057353;28;20044;-73
2022/01/20 01:35:26;;;;;;;14.48;2.53;;;4.10;99.90;;;;;;5053213;28;20055;-73
2022/01/20 01:40:22;;;;;;;12.38;1.77;;;4.10;99.90;;;;;;5053108;28;20127;-73
2022/01/20 01:42:51;;;;;;;10.77;1.45;;;4.30;99.90;;;;;;5052671;28;20605;-74
2022/01/20 01:45:27;;;;;;;9.05;1.65;;;4.20;99.90;;;;;;5065275;28;20612;-73
2022/01/20 01:47:53;;;;;;;4.30;0.80;;;4.20;99.90;;;;;;5052254;28;20398;-72
2022/01/20 01:50:20;;;;;;;8.80;1.45;;;4.30;99.90;;;;;;5053263;28;20048;-73
2022/01/20 01:52:45;;;;;;;11.20;1.20;;;4.20;99.90;;;;;;5052887;28;20427;-73
2022/01/20 01:55:11;;;;;;;6.43;1.00;;;4.20;99.90;;;;;;5051961;28;20072;-72
2022/01/20 01:57:37;;;;;;;6.28;1.10;;;4.20;99.90;;;;;;5051916;28;20075;-73
2022/01/20 02:00:08;;;;;;;11.13;1.10;;;4.20;99.90;;;;;;5050646;28;20040;-73
2022/01/20 02:02:34;;;;;;;6.15;0.90;;;4.20;99.90;;;;;;5039337;28;20095;-73
2022/01/20 02:05:03;;;;;;;6.65;1.13;;;4.20;99.90;;;;;;5053422;28;20068;-74
2022/01/20 02:08:04;;;;;;;9.63;1.42;;;4.00;99.90;;;;;;5053014;28;20055;-73
2022/01/20 02:18:46;;;;;;;6.05;0.70;;;3.90;99.90;;;;;;5050823;28;20044;-74
2022/01/20 02:21:12;;;;;;;8.43;1.10;;;4.10;99.90;;;;;;5049170;28;20056;-73
2022/01/20 02:23:38;;;;;;;10.70;1.52;;;4.20;99.90;;;;;;5050655;28;21299;-73
2022/01/20 02:26:04;;;;;;;5.10;1.20;;;4.30;99.90;;;;;;5037845;28;20044;-73
2022/01/20 02:28:30;;;;;;;8.15;1.02;;;4.30;99.90;;;;;;5035358;28;20036;-73
2022/01/20 02:30:56;;;;;;;7.47;1.35;;;4.30;99.90;;;;;;5069199;28;20177;-73
2022/01/20 02:33:25;;;;;;;8.85;1.38;;;4.20;99.90;;;;;;5052431;28;20047;-73
2022/01/20 02:35:54;;;;;;;6.63;1.20;;;4.20;99.90;;;;;;5065128;28;20484;-72
2022/01/20 02:46:17;;;;;;;9.02;2.03;;;4.30;99.90;;;;;;5047987;28;20040;-72
2022/01/20 02:48:42;;;;;;;12.77;1.83;;;4.40;99.90;;;;;;5040073;28;20032;-73
2022/01/20 02:51:08;;;;;;;8.73;2.08;;;4.40;99.90;;;;;;5052282;28;20048;-73
2022/01/20 02:53:33;;;;;;;11.73;1.83;;;4.30;99.90;;;;;;5029025;28;20444;-72
2022/01/20 02:55:59;;;;;;;11.07;2.17;;;4.10;99.90;;;;;;5045085;28;20458;-73
2022/01/20 02:58:24;;;;;;;12.27;2.47;;;4.20;99.90;;;;;;5051562;28;20094;-72
2022/01/20 03:00:50;;;;;;;12.95;2.22;;;4.00;99.90;;;;;;5052510;28;20450;-73
2022/01/20 03:03:16;;;;;;;14.88;2.60;;;4.00;99.90;;;;;;5029118;28;20029;-73
2022/01/20 03:05:42;;;;;;;14.93;1.98;;;4.00;99.90;;;;;;5052381;28;20048;-72
2022/01/20 03:08:07;;;;;;;10.90;2.03;;;3.90;99.90;;;;;;5051901;28;20609;-72
2022/01/20 03:10:33;;;;;;;8.82;2.20;;;3.90;99.90;;;;;;5044365;28;20389;-72
2022/01/20 03:12:59;;;;;;;15.55;3.05;;;3.80;99.90;;;;;;5046858;28;20041;-73
2022/01/20 03:15:25;;;;;;;14.40;2.78;;;3.70;99.90;;;;;;5050888;28;20111;-72
2022/01/20 03:17:51;;;;;;;23.70;3.38;;;3.90;99.90;;;;;;5052113;28;20052;-72
2022/01/20 03:20:16;;;;;;;12.55;2.95;;;3.90;99.90;;;;;;5047711;28;20040;-72
2022/01/20 03:22:42;;;;;;;16.55;2.80;;;3.90;99.90;;;;;;5051992;28;20098;-72
2022/01/20 03:25:08;;;;;;;15.70;3.03;;;4.10;99.90;;;;;;5052192;28;20040;-72
2022/01/20 03:27:33;;;;;;;17.08;3.13;;;4.00;99.90;;;;;;5033969;28;20170;-73
2022/01/20 03:29:59;;;;;;;12.32;2.72;;;4.10;99.90;;;;;;5051835;28;20483;-72
2022/01/20 03:32:25;;;;;;;19.40;3.50;;;4.20;99.90;;;;;;5036019;28;20041;-72
2022/01/20 03:34:50;;;;;;;15.95;3.10;;;4.30;99.90;;;;;;5070088;28;20040;-73
2022/01/20 03:37:16;;;;;;;15.40;2.50;;;4.20;99.90;;;;;;5070353;28;20166;-72
2022/01/20 03:39:42;;;;;;;19.33;3.30;;;4.20;99.90;;;;;;5048726;28;20117;-71
2022/01/20 03:42:08;;;;;;;22.40;3.30;;;4.20;99.90;;;;;;5048639;28;20043;-72
2022/01/20 03:44:33;;;;;;;17.42;2.78;;;4.20;99.90;;;;;;5054150;28;20075;-72
2022/01/20 03:47:02;;;;;;;18.95;3.00;;;4.20;99.90;;;;;;5056246;28;20123;-73
2022/01/20 03:49:39;;;;;;;17.15;3.10;;;4.30;99.90;;;;;;5054429;28;20040;-72
2022/01/20 03:52:05;;;;;;;15.23;3.42;;;4.20;99.90;;;;;;5055722;28;20044;-72
2022/01/20 03:54:31;;;;;;;14.40;2.88;;;4.10;99.90;;;;;;5054785;28;20035;-72
2022/01/20 03:56:57;;;;;;;11.35;2.47;;;4.10;99.90;;;;;;5038092;28;20048;-72
2022/01/20 03:59:22;;;;;;;14.57;2.47;;;4.20;99.90;;;;;;5051759;28;20028;-72
2022/01/20 04:01:48;;;;;;;14.18;2.72;;;4.20;99.90;;;;;;5053009;28;20103;-72
2022/01/20 04:04:14;;;;;;;12.35;2.03;;;4.40;99.90;;;;;;5039035;28;20093;-73
2022/01/20 04:06:39;;;;;;;9.35;1.67;;;4.40;99.90;;;;;;5038895;28;20087;-73
2022/01/20 04:09:05;;;;;;;8.35;2.10;;;4.40;99.90;;;;;;5055712;28;20049;-73
2022/01/20 04:11:31;;;;;;;11.88;2.78;;;4.30;99.90;;;;;;5055443;28;20066;-73
2022/01/20 04:13:57;;;;;;;10.93;1.58;;;4.40;99.90;;;;;;5053581;28;20075;-73
2022/01/20 04:16:37;;;;;;;8.45;1.52;;;4.10;99.90;;;;;;5054061;28;20522;-73
2022/01/20 04:19:08;;;;;;;10.25;1.95;;;4.00;99.90;;;;;;5050127;28;20032;-73
2022/01/20 04:21:35;;;;;;;12.37;2.13;;;4.00;99.90;;;;;;5046658;28;20051;-73
2022/01/20 04:24:02;;;;;;;13.63;2.10;;;4.00;99.90;;;;;;5051428;28;20051;-73
2022/01/20 04:26:29;;;;;;;8.50;2.08;;;3.90;99.90;;;;;;5070225;28;20553;-73
2022/01/20 04:28:56;;;;;;;7.95;2.25;;;4.00;99.90;;;;;;5055363;28;20049;-73
2022/01/20 04:31:28;;;;;;;13.38;2.13;;;3.90;99.90;;;;;;5052123;28;20050;-73
2022/01/20 04:33:56;;;;;;;7.93;1.98;;;3.90;99.90;;;;;;5050818;28;20074;-73
2022/01/20 04:36:22;;;;;;;11.45;1.85;;;4.00;99.90;;;;;;5035559;28;20048;-73
2022/01/20 04:38:47;;;;;;;5.95;1.83;;;4.00;99.90;;;;;;5054355;28;20045;-73
2022/01/20 04:41:13;;;;;;;7.93;1.73;;;3.90;99.90;;;;;;5054437;28;20458;-73
2022/01/20 04:43:39;;;;;;;7.47;1.50;;;3.90;99.90;;;;;;5053693;28;20039;-73
2022/01/20 04:46:23;;;;;;;10.85;2.05;;;4.00;99.90;;;;;;5052111;28;20041;-74
2022/01/20 04:59:27;;;;;;;6.53;2.17;;;3.90;99.90;;;;;;5050415;28;20417;-73
2022/01/20 05:01:53;;;;;;;12.13;1.48;;;4.00;99.90;;;;;;5053495;28;20033;-73
2022/01/20 05:04:19;;;;;;;13.68;2.22;;;3.90;99.90;;;;;;5046993;28;20064;-73
2022/01/20 05:06:46;;;;;;;11.95;2.20;;;3.70;99.90;;;;;;5054393;28;20044;-74
2022/01/20 05:09:17;;;;;;;11.93;2.50;;;3.70;99.90;;;;;;5044719;28;20048;-72
2022/01/20 05:11:48;;;;;;;9.80;2.57;;;3.60;99.90;;;;;;5054167;28;20123;-73
2022/01/20 05:14:14;;;;;;;11.25;2.35;;;3.60;99.90;;;;;;5054439;28;20044;-73
2022/01/20 05:16:39;;;;;;;11.02;1.85;;;3.50;99.90;;;;;;5054978;28;20051;-73
2022/01/20 05:19:05;;;;;;;8.90;1.50;;;3.60;99.90;;;;;;5053739;28;20036;-74
2022/01/20 05:21:30;;;;;;;8.85;1.90;;;3.70;99.90;;;;;;5050902;28;20036;-73
2022/01/20 05:23:56;;;;;;;11.73;2.17;;;3.90;99.90;;;;;;5053283;28;20090;-73
2022/01/20 05:26:21;;;;;;;8.88;1.60;;;3.70;99.90;;;;;;5044072;28;20128;-74
2022/01/20 05:28:47;;;;;;;6.38;1.20;;;3.80;99.90;;;;;;5037541;28;20079;-73
2022/01/20 05:31:12;;;;;;;4.55;1.17;;;3.70;99.90;;;;;;5053641;28;20036;-74
2022/01/20 05:33:38;;;;;;;5.45;1.77;;;3.80;99.90;;;;;;5053674;28;20032;-73
2022/01/20 05:36:04;;;;;;;5.15;1.20;;;3.50;99.90;;;;;;5052475;28;20131;-73
2022/01/20 05:38:29;;;;;;;6.22;1.30;;;3.40;99.90;;;;;;5051376;28;20485;-74
2022/01/20 05:40:55;;;;;;;3.95;0.98;;;3.30;99.90;;;;;;5053393;28;20123;-73
2022/01/20 05:43:20;;;;;;;7.22;1.45;;;3.50;99.90;;;;;;5048540;28;20676;-74
2022/01/20 05:45:46;;;;;;;5.72;1.30;;;3.40;99.90;;;;;;5053731;28;20086;-73
2022/01/20 05:48:15;;;;;;;10.23;1.65;;;3.20;99.90;;;;;;5052994;28;20481;-73
2022/01/20 05:50:42;;;;;;;7.28;1.40;;;3.10;99.90;;;;;;5053276;28;20032;-73
2022/01/20 05:53:07;;;;;;;9.10;1.60;;;3.10;99.90;;;;;;5050260;28;20101;-73
2022/01/20 05:55:34;;;;;;;7.90;2.15;;;3.00;99.90;;;;;;5052088;28;20462;-73
2022/01/20 05:58:00;;;;;;;11.88;1.40;;;3.00;99.90;;;;;;5052665;28;20043;-74
2022/01/20 06:00:25;;;;;;;8.73;1.98;;;3.00;99.90;;;;;;5046643;28;20040;-73
2022/01/20 06:05:37;;;;;;;10.70;2.20;;;2.70;99.90;;;;;;5050819;28;20056;-74
2022/01/20 06:08:03;;;;;;;12.00;2.00;;;2.60;99.90;;;;;;5053105;28;20061;-73
2022/01/20 06:10:29;;;;;;;10.88;2.25;;;2.60;99.90;;;;;;5050572;28;20043;-73
2022/01/20 06:12:54;;;;;;;10.60;1.73;;;2.70;99.90;;;;;;5053148;28;20044;-74
2022/01/20 06:15:20;;;;;;;12.05;2.78;;;2.70;99.90;;;;;;5053192;28;20494;-74
2022/01/20 06:17:45;;;;;;;16.23;2.33;;;2.80;99.90;;;;;;5065300;28;20796;-74
2022/01/20 06:20:11;;;;;;;18.77;2.45;;;2.80;99.90;;;;;;5053079;28;20756;-73
2022/01/20 06:22:38;;;;;;;9.30;2.50;;;2.80;99.90;;;;;;5053435;28;20037;-73
2022/01/20 06:25:05;;;;;;;11.55;2.40;;;2.80;99.90;;;;;;5048550;28;20044;-74
2022/01/20 06:27:31;;;;;;;10.95;2.53;;;2.90;99.90;;;;;;5053232;28;20040;-74
2022/01/20 06:29:57;;;;;;;15.02;2.85;;;2.90;99.90;;;;;;5051727;28;20044;-73
2022/01/20 06:32:22;;;;;;;12.00;2.50;;;3.00;99.90;;;;;;5069740;28;20040;-74
2022/01/20 06:34:48;;;;;;;8.98;1.95;;;3.10;99.90;;;;;;5066423;28;20059;-73
2022/01/20 06:37:13;;;;;;;14.13;2.75;;;3.00;99.90;;;;;;5052857;28;20044;-74
2022/01/20 06:39:39;;;;;;;12.55;3.08;;;3.20;99.90;;;;;;5052299;28;20036;-73
2022/01/20 06:42:05;;;;;;;13.43;2.60;;;3.40;99.90;;;;;;5050359;28;20547;-73
2022/01/20 06:44:31;;;;;;;15.02;3.03;;;3.30;99.90;;;;;;5046974;28;20063;-74
2022/01/20 06:46:56;;;;;;;15.60;2.92;;;3.30;99.90;;;;;;5051695;28;20581;-73
2022/01/20 06:49:22;;;;;;;14.75;2.80;;;3.30;99.90;;;;;;5052456;28;20055;-73
2022/01/20 06:51:47;;;;;;;9.60;2.58;;;3.50;99.90;;;;;;5048865;28;20056;-73
2022/01/20 06:54:14;;;;;;;10.80;2.50;;;3.60;99.90;;;;;;5035125;28;20041;-73
2022/01/20 06:56:43;;;;;;;8.82;2.15;;;3.40;99.90;;;;;;5049488;28;20040;-74
2022/01/20 06:59:14;;;;;;;13.15;2.25;;;3.20;99.90;;;;;;5045678;28;20043;-72
2022/01/20 07:01:41;;;;;;;12.43;2.15;;;3.10;99.90;;;;;;5047904;28;20394;-73
2022/01/20 07:04:07;;;;;;;11.23;2.25;;;2.90;99.90;;;;;;5051857;28;20045;-73
2022/01/20 07:06:32;;;;;;;12.18;2.30;;;2.80;99.90;;;;;;5047941;28;20048;-74
2022/01/20 07:08:58;;;;;;;8.18;2.10;;;2.90;99.90;;;;;;5051340;28;20454;-73
2022/01/20 07:11:25;;;;;;;13.13;2.35;;;2.80;99.90;;;;;;5050126;28;20089;-73
2022/01/20 07:13:50;;;;;;;14.50;2.60;;;2.80;99.90;;;;;;5070149;28;20182;-73
2022/01/20 07:16:16;;;;;;;14.45;1.98;;;2.60;99.90;;;;;;5054099;28;20143;-74
2022/01/20 07:18:41;;;;;;;9.23;2.28;;;2.50;99.90;;;;;;5054333;28;20063;-73
2022/01/20 07:21:07;;;;;;;12.32;1.80;;;2.50;99.90;;;;;;5053502;28;20487;-73
2022/01/20 07:23:32;;;;;;;9.52;2.33;;;2.50;99.90;;;;;;5054623;28;20036;-73
2022/01/20 07:25:58;;;;;;;10.57;1.83;;;2.40;99.90;;;;;;5054746;28;20032;-73
2022/01/20 07:28:23;;;;;;;9.30;1.77;;;2.40;99.90;;;;;;5051923;28;20040;-73
2022/01/20 07:30:49;;;;;;;12.20;2.13;;;2.50;99.90;;;;;;5056207;28;20036;-73
2022/01/20 07:33:15;;;;;;;13.98;2.88;;;2.60;99.90;;;;;;5056402;28;20031;-73
2022/01/20 07:35:41;;;;;;;8.80;1.75;;;2.70;99.90;;;;;;5056179;28;20029;-73
2022/01/20 07:38:07;;;;;;;13.48;2.72;;;2.80;99.90;;;;;;5053358;28;20060;-73
2022/01/20 07:40:33;;;;;;;16.23;2.50;;;2.90;99.90;;;;;;5050438;28;20029;-73
2022/01/20 07:42:59;;;;;;;16.52;2.45;;;2.90;99.90;;;;;;5050449;28;20547;-73
2022/01/20 07:45:26;;;;;;;12.88;1.95;;;2.90;99.90;;;;;;5055704;28;20566;-73
2022/01/20 07:47:52;;;;;;;11.27;2.30;;;2.80;99.90;;;;;;5052838;28;20040;-73
2022/01/20 07:50:17;;;;;;;13.85;2.92;;;2.80;99.90;;;;;;5055043;28;20048;-72
2022/01/20 07:52:43;;;;;;;8.75;2.17;;;2.70;99.90;;;;;;5055247;28;20036;-73
2022/01/20 07:55:09;;;;;;;8.38;2.28;;;2.60;99.90;;;;;;5033384;28;20036;-73
2022/01/20 07:57:34;;;;;;;14.20;2.28;;;2.60;99.90;;;;;;5054153;28;20036;-73
2022/01/20 08:00:00;;;;;;;9.82;2.00;;;2.70;99.90;;;;;;5051062;28;20078;-73
2022/01/20 08:02:26;;;;;;;12.07;2.03;;;2.80;99.90;;;;;;5053552;28;20035;-73
2022/01/20 08:04:51;;;;;;;10.93;2.15;;;2.80;99.90;;;;;;5055972;28;20044;-73
2022/01/20 08:07:18;;;;;;;13.10;2.38;;;3.10;99.90;;;;;;5055788;28;20078;-73
2022/01/20 08:09:45;;;;;;;6.68;1.70;;;3.10;99.90;;;;;;5055983;28;20751;-72
2022/01/20 08:12:11;;;;;;;14.38;1.92;;;3.30;99.90;;;;;;5039101;28;20036;-73
2022/01/20 08:14:37;;;;;;;10.73;1.95;;;3.20;99.90;;;;;;5055020;28;20058;-73
2022/01/20 08:17:03;;;;;;;11.65;2.80;;;3.20;99.90;;;;;;5047673;28;20041;-72
2022/01/20 08:19:28;;;;;;;12.82;2.35;;;3.10;99.90;;;;;;5054514;28;20382;-73
2022/01/20 08:21:54;;;;;;;13.80;2.95;;;3.00;99.90;;;;;;5039198;28;20421;-73
2022/01/20 08:24:19;;;;;;;10.38;1.92;;;3.00;99.90;;;;;;5054053;28;20048;-73
2022/01/20 08:26:45;;;;;;;15.32;3.00;;;2.90;99.90;;;;;;5073525;28;20059;-74
2022/01/20 08:29:10;;;;;;;19.02;2.55;;;2.90;99.90;;;;;;5037228;28;20040;-74
2022/01/20 08:31:36;;;;;;;11.35;2.03;;;2.80;99.90;;;;;;5055484;28;20044;-73
2022/01/20 08:34:02;;;;;;;16.75;2.55;;;2.80;99.90;;;;;;5052293;28;20520;-73
2022/01/20 08:36:27;;;;;;;20.25;2.50;;;2.80;99.90;;;;;;5052498;28;20028;-74
2022/01/20 08:38:53;;;;;;;11.80;2.15;;;2.90;99.90;;;;;;5054802;28;20048;-73
2022/01/20 08:41:19;;;;;;;13.77;2.13;;;2.90;99.90;;;;;;5038864;28;20139;-73
2022/01/20 08:43:44;;;;;;;11.30;2.60;;;3.00;99.90;;;;;;5054144;28;20044;-73
2022/01/20 08:46:11;;;;;;;13.23;2.35;;;3.10;99.90;;;;;;5055034;28;20047;-74
2022/01/20 08:48:38;;;;;;;12.27;2.20;;;3.00;99.90;;;;;;5054634;28;20067;-72
2022/01/20 08:51:05;;;;;;;10.52;2.17;;;3.20;99.90;;;;;;5045030;28;20183;-74
2022/01/20 08:53:31;;;;;;;8.63;2.03;;;3.30;99.90;;;;;;5050096;28;20470;-73
2022/01/20 08:56:01;;;;;;;13.02;2.15;;;3.20;99.90;;;;;;5052097;28;20035;-73
2022/01/20 08:58:26;;;;;;;10.70;1.83;;;3.40;99.90;;;;;;5051071;28;20040;-73
2022/01/20 09:00:52;;;;;;;11.18;1.73;;;3.40;99.90;;;;;;5053045;28;20045;-73
2022/01/20 09:03:20;;;;;;;9.55;2.13;;;3.70;99.90;;;;;;5049240;28;20494;-73
2022/01/20 09:05:46;;;;;;;8.75;1.90;;;3.80;99.90;;;;;;5045253;28;20056;-74
2022/01/20 09:08:12;;;;;;;6.93;1.00;;;4.00;99.90;;;;;;5036155;28;20056;-73
2022/01/20 09:10:39;;;;;;;8.23;1.58;;;4.00;99.90;;;;;;5054909;28;20131;-74
2022/01/20 09:15:50;;;;;;;10.05;1.67;;;3.60;99.90;;;;;;5050872;28;20037;-73
2022/01/20 09:18:18;;;;;;;7.97;1.42;;;3.50;99.90;;;;;;5052206;28;20060;-72
2022/01/20 09:20:44;;;;;;;11.40;1.92;;;3.30;99.90;;;;;;5053568;28;20093;-73
2022/01/20 09:23:10;;;;;;;7.32;1.45;;;3.20;99.90;;;;;;5034268;28;20048;-73
2022/01/20 09:25:36;;;;;;;5.00;1.05;;;3.20;99.90;;;;;;5051291;28;20045;-73
2022/01/20 09:28:03;;;;;;;4.47;1.75;;;3.20;99.90;;;;;;5053291;28;20074;-73
2022/01/20 09:30:29;;;;;;;8.50;1.65;;;3.30;99.90;;;;;;5037029;28;20351;-73
2022/01/20 09:33:26;;;;;;;7.35;1.25;;;3.50;99.90;;;;;;5053600;28;20526;-73
2022/01/20 09:35:44;;;;;;;8.55;1.70;;;3.80;99.90;;;;;;5053183;28;20041;-73
2022/01/20 09:38:11;;;;;;;7.20;1.27;;;3.80;99.90;;;;;;5054204;28;20134;-73
2022/01/20 09:40:37;;;;;;;8.80;1.48;;;3.60;99.90;;;;;;5037750;28;20563;-73
2022/01/20 09:43:08;;;;;;;6.60;1.33;;;3.80;99.90;;;;;;5036632;28;20090;-73
2022/01/20 09:45:34;;;;;;;7.90;1.88;;;3.70;99.90;;;;;;5046149;28;20033;-74
2022/01/20 09:48:01;;;;;;;10.73;2.15;;;3.60;99.90;;;;;;5051596;28;20432;-73
2022/01/20 09:50:27;;;;;;;8.93;1.52;;;3.30;99.90;;;;;;5049696;28;20033;-74
2022/01/20 09:52:58;;;;;;;11.23;1.80;;;3.40;99.90;;;;;;5039592;28;20056;-74
2022/01/20 09:55:23;;;;;;;8.98;1.33;;;3.40;99.90;;;;;;5029677;28;20037;-73
2022/01/20 09:57:49;;;;;;;9.10;1.58;;;3.40;99.90;;;;;;5049496;28;20532;-70
2022/01/20 10:00:17;;;;;;;11.32;1.60;;;3.40;99.90;;;;;;5040781;28;20051;-70
2022/01/20 10:02:54;;;;;;;12.65;1.92;;;3.40;99.90;;;;;;5051135;28;20679;-70
2022/01/20 10:05:35;;;;;;;12.20;2.28;;;3.40;99.90;;;;;;5050472;28;20066;-70
2022/01/20 10:08:10;;;;;;;16.10;2.25;;;3.50;99.90;;;;;;5049749;28;20044;-69
2022/01/20 10:10:38;;;;;;;8.63;1.40;;;3.80;99.90;;;;;;5036292;28;20044;-69
2022/01/20 10:13:09;;;;;;;7.30;1.67;;;4.00;99.90;;;;;;5070572;28;20039;-69
2022/01/20 10:15:36;;;;;;;11.23;2.42;;;4.00;99.90;;;;;;5050922;28;20474;-69
2022/01/20 10:18:13;;;;;;;11.02;2.00;;;4.00;99.90;;;;;;5053871;28;20127;-69
2022/01/20 10:20:55;;;;;;;10.45;2.35;;;4.10;99.90;;;;;;5036648;28;20067;-70
2022/01/20 10:23:48;;;;;;;11.88;2.10;;;4.30;99.90;;;;;;5052814;28;20047;-69
2022/01/20 10:26:20;;;;;;;;;;;4.50;99.90;;;;;;5044202;28;20052;-69
2022/01/20 10:28:49;;;;;;;11.32;2.30;;;4.60;99.90;;;;;;5036462;28;20316;-69
2022/01/20 10:31:16;;;;;;;14.10;2.65;;;4.60;99.90;;;;;;5032826;28;20044;-69
2022/01/20 10:33:43;;;;;;;13.55;2.00;;;4.70;99.90;;;;;;5041883;28;20114;-69
2022/01/20 10:36:10;;;;;;;8.55;1.70;;;4.80;99.90;;;;;;5046151;28;20040;-69
2022/01/20 10:38:36;;;;;;;13.40;1.98;;;4.90;99.90;;;;;;5050904;28;20040;-69
2022/01/20 10:41:04;;;;;;;8.15;2.08;;;4.80;99.90;;;;;;5069747;28;20529;-70
2022/01/20 10:43:34;;;;;;;7.35;1.67;;;4.90;99.90;;;;;;5052398;28;20071;-68
2022/01/20 10:46:13;;;;;;;9.32;1.70;;;4.90;99.90;;;;;;5070725;28;20371;-70
2022/01/20 10:48:40;;;;;;;10.57;1.70;;;4.70;99.90;;;;;;5037290;28;20040;-69
2022/01/20 10:51:16;;;;;;;8.13;1.40;;;4.80;99.90;;;;;;5049845;28;20109;-69
2022/01/20 10:53:41;;;;;;;8.20;1.77;;;4.90;99.90;;;;;;5063661;28;20366;-69
2022/01/20 10:56:07;;;;;;;8.02;1.95;;;4.90;99.90;;;;;;5035869;28;20050;-69
2022/01/20 10:58:33;;;;;;;11.27;2.05;;;4.80;99.90;;;;;;5052689;28;20569;-70
2022/01/20 11:01:00;;;;;;;9.27;2.17;;;4.60;99.90;;;;;;5052302;28;20067;-69
2022/01/20 11:03:27;;;;;;;6.88;1.73;;;4.60;99.90;;;;;;5051677;28;20040;-69
2022/01/20 11:05:54;;;;;;;11.60;2.00;;;4.60;99.90;;;;;;5049323;28;20395;-69
2022/01/20 11:08:21;;;;;;;10.57;1.45;;;4.70;99.90;;;;;;5056151;28;20474;-69
2022/01/20 11:10:48;;;;;;;8.73;1.35;;;4.70;99.90;;;;;;5065134;28;20069;-69
2022/01/20 11:13:15;;;;;;;7.35;1.60;;;4.70;99.90;;;;;;5051679;28;20064;-70
2022/01/20 11:15:42;;;;;;;12.00;1.92;;;4.80;99.90;;;;;;5052052;28;20044;-70
2022/01/20 11:18:09;;;;;;;6.68;1.80;;;4.80;99.90;;;;;;5033904;28;20162;-70
2022/01/20 11:20:47;;;;;;;5.07;2.03;;;4.80;99.90;;;;;;5049653;23;20060;-71
2022/01/20 11:23:13;;;;;;;13.32;2.13;;;5.00;99.90;;;;;;5048831;28;20056;-71
2022/01/20 11:25:41;;;;;;;6.55;1.60;;;5.00;99.90;;;;;;5029565;28;20050;-71
2022/01/20 11:28:25;;;;;;;10.23;1.40;;;5.00;99.90;;;;;;5024231;28;20147;-71
2022/01/20 11:31:04;;;;;;;7.55;2.05;;;5.00;99.90;;;;;;5042729;28;20058;-72
2022/01/20 11:33:44;;;;;;;15.43;2.47;;;4.70;99.90;;;;;;5024434;28;20106;-71
2022/01/20 11:36:24;;;;;;;13.88;1.80;;;4.50;99.90;;;;;;5023165;28;20044;-72
2022/01/20 11:38:50;;;;;;;13.75;2.55;;;4.30;99.90;;;;;;5024434;28;20224;-72
2022/01/20 11:41:17;;;;;;;9.55;2.53;;;4.20;99.90;;;;;;5018200;28;20168;-72
2022/01/20 11:43:53;;;;;;;9.25;1.48;;;4.20;99.90;;;;;;5028632;28;20398;-72
2022/01/20 11:46:19;;;;;;;14.60;2.35;;;4.30;99.90;;;;;;5018098;28;20037;-72
2022/01/20 11:48:53;;;;;;;13.25;2.35;;;4.30;99.90;;;;;;5028341;28;20120;-72
2022/01/20 11:51:20;;;;;;;12.75;2.05;;;4.30;99.90;;;;;;5026836;28;20394;-72
2022/01/20 11:54:01;;;;;;;11.02;2.17;;;4.40;99.90;;;;;;5020404;28;20041;-72
2022/01/20 11:56:35;;;;;;;8.48;2.53;;;4.50;99.90;;;;;;5045786;28;20029;-73
2022/01/20 11:59:03;;;;;;;8.80;1.67;;;4.30;99.90;;;;;;5023400;28;20032;-73
2022/01/20 12:01:30;;;;;;;5.63;1.25;;;4.10;99.90;;;;;;5040400;28;20033;-73
2022/01/20 12:03:57;;;;;;;6.85;1.45;;;4.00;99.90;;;;;;5026165;28;20462;-73
2022/01/20 12:06:25;;;;;;;12.15;2.05;;;3.80;99.90;;;;;;5029295;28;20044;-72
2022/01/20 12:09:00;;;;;;;7.35;1.65;;;3.70;99.90;;;;;;5032869;28;20045;-72
2022/01/20 12:11:37;;;;;;;9.20;1.60;;;3.60;99.90;;;;;;5025015;28;20037;-72
2022/01/20 12:14:04;;;;;;;14.15;2.42;;;3.50;99.90;;;;;;5031328;28;20045;-73
2022/01/20 12:16:30;;;;;;;7.15;1.77;;;3.60;99.90;;;;;;5034459;28;20033;-72
2022/01/20 12:18:58;;;;;;;8.25;1.50;;;3.60;99.90;;;;;;5028620;28;20040;-72
2022/01/20 12:21:25;;;;;;;8.52;2.17;;;3.80;99.90;;;;;;5025087;28;20124;-72
2022/01/20 12:23:53;;;;;;;13.55;2.63;;;4.00;99.90;;;;;;5034444;28;20036;-73
2022/01/20 12:26:18;;;;;;;8.80;1.77;;;4.10;99.90;;;;;;5028724;28;20043;-72
2022/01/20 12:28:44;;;;;;;9.60;1.40;;;4.10;99.90;;;;;;5022607;28;20038;-73
2022/01/20 12:31:12;;;;;;;8.70;1.70;;;4.00;99.90;;;;;;5046552;28;20072;-72
2022/01/20 12:33:43;;;;;;;11.05;1.90;;;4.10;99.90;;;;;;5025886;28;20048;-72
2022/01/20 12:36:16;;;;;;;16.30;3.03;;;4.10;99.90;;;;;;5026576;28;20128;-72
2022/01/20 12:38:46;;;;;;;13.85;2.33;;;4.20;99.90;;;;;;5026559;28;20041;-72
2022/01/20 12:41:17;;;;;;;14.40;2.70;;;4.10;99.90;;;;;;5045786;28;20502;-72
2022/01/20 12:44:00;;;;;;;13.57;2.20;;;4.20;99.90;;;;;;5033367;28;20118;-73
2022/01/20 12:46:28;;;;;;;12.20;2.53;;;4.40;99.90;;;;;;5018207;28;20045;-72
2022/01/20 12:48:58;;;;;;;14.32;2.38;;;4.40;99.90;;;;;;5033565;28;20037;-73
2022/01/20 12:51:53;;;;;;;13.85;2.53;;;4.30;99.90;;;;;;5035239;28;20044;-72
2022/01/20 12:54:39;;;;;;;8.48;2.30;;;4.40;99.90;;;;;;5031799;28;20083;-72
2022/01/20 12:57:07;;;;;;;12.40;2.33;;;4.30;99.90;;;;;;5010233;28;20098;-72
2022/01/20 12:59:37;;;;;;;12.95;2.80;;;4.30;99.90;;;;;;5028282;28;20075;-72
2022/01/20 13:02:23;;;;;;;8.50;2.00;;;4.40;99.90;;;;;;5031786;28;20029;-73
2022/01/20 13:04:55;;;;;;;11.02;2.42;;;4.50;99.90;;;;;;5036824;28;20088;-73
2022/01/20 13:07:21;;;;;;;12.25;1.98;;;4.50;99.90;;;;;;5029492;28;20037;-73
2022/01/20 13:09:59;;;;;;;13.80;2.35;;;4.50;99.90;;;;;;5031191;28;20048;-72
2022/01/20 13:12:39;;;;;;;15.88;3.05;;;4.50;99.90;;;;;;5034137;28;20055;-72
2022/01/20 13:15:16;;;;;;;14.52;2.50;;;4.30;99.90;;;;;;5033219;28;20052;-73
2022/01/20 13:17:43;;;;;;;15.52;3.17;;;4.40;99.90;;;;;;5033885;28;20040;-72
2022/01/20 13:20:20;;;;;;;16.70;2.85;;;4.60;99.90;;;;;;5033499;28;20076;-72
2022/01/20 13:22:56;;;;;;;14.27;2.50;;;4.50;99.90;;;;;;5013937;28;20541;-72
2022/01/20 13:25:29;;;;;;;12.60;1.95;;;4.50;99.90;;;;;;5034830;28;20068;-73
2022/01/20 13:27:57;;;;;;;7.65;1.55;;;4.70;99.90;;;;;;5034704;28;20045;-72
2022/01/20 13:30:36;;;;;;;7.80;1.48;;;4.70;99.90;;;;;;5034505;28;20041;-73
2022/01/20 13:33:06;;;;;;;7.53;1.75;;;4.80;99.90;;;;;;5034282;28;20059;-72
2022/01/20 13:35:41;;;;;;;8.25;1.60;;;4.80;99.90;;;;;;5034442;28;20045;-73
2022/01/20 13:38:08;;;;;;;7.65;1.73;;;4.60;99.90;;;;;;5027656;28;20055;-72
2022/01/20 13:40:35;;;;;;;6.47;1.23;;;4.50;99.90;;;;;;5034298;28;20048;-72
2022/01/20 13:45:45;;;;;;;6.32;0.75;;;4.40;99.90;;;;;;5029327;28;20045;-73
2022/01/20 13:48:12;;;;;;;;;;;4.60;99.90;;;;;;5047047;28;20045;-72
2022/01/20 13:50:40;;;;;;;6.65;0.95;;;4.40;99.90;;;;;;5026371;28;20000;-72
2022/01/20 13:53:16;;;;;;;4.68;1.20;;;4.50;99.90;;;;;;5032632;28;20067;-73
2022/01/20 13:55:44;;;;;;;6.28;1.23;;;4.50;99.90;;;;;;5023011;28;20581;-73
2022/01/20 13:58:21;;;;;;;8.77;1.42;;;4.50;99.90;;;;;;5032548;28;20049;-73
2022/01/20 14:00:47;;;;;;;6.78;1.40;;;4.30;99.90;;;;;;5021344;28;20564;-73
2022/01/20 14:03:12;;;;;;;7.22;1.60;;;4.20;99.90;;;;;;5033044;28;20127;-72